Time;durP1;ratioP1;P1;durP2;ratioP2;P2;SDS_P1;SDS_P2;PMS_P1;PMS_P2;Temp;Humidity;BMP_temperature;BMP_pressure;BME280_temperature;BME280_humidity;BME280_pressure;Samples;Min_cycle;Max_cycle;Signal;HPM_P1;HPM_P2
2022/12/06 00:01:28;;;;;;;;;42.00;38.33;;;;;5.25;100.00;101413.00;6258406;22;45462;-81
2022/12/06 00:03:56;;;;;;;;;20.33;17.33;;;;;5.25;100.00;101418.28;6284910;22;45354;-82
2022/12/06 00:06:23;;;;;;;;;41.33;38.33;;;;;5.27;100.00;101413.97;6261821;22;45368;-84
2022/12/06 00:08:50;;;;;;;;;29.33;28.33;;;;;5.24;100.00;101399.75;6260034;22;44743;-82
2022/12/06 00:11:18;;;;;;;;;45.00;41.00;;;;;5.27;100.00;101399.88;6261341;22;44862;-81
2022/12/06 00:13:44;;;;;;;;;40.00;33.33;;;;;5.27;100.00;101403.44;6285580;22;48126;-82
2022/12/06 00:16:12;;;;;;;;;41.00;38.33;;;;;5.28;100.00;101412.25;6259634;22;45485;-83
2022/12/06 00:18:40;;;;;;;;;46.67;41.00;;;;;5.24;100.00;101400.63;6259933;22;45417;-81
2022/12/06 00:21:12;;;;;;;;;48.33;39.33;;;;;5.30;100.00;101400.03;6257173;22;45329;-82
2022/12/06 00:23:40;;;;;;;;;42.67;37.33;;;;;5.29;100.00;101398.19;6257199;22;46905;-80
2022/12/06 00:26:06;;;;;;;;;48.50;43.00;;;;;5.31;100.00;101405.38;6282562;22;45409;-81
2022/12/06 00:28:33;;;;;;;;;48.00;41.00;;;;;5.31;100.00;101397.47;6256708;22;45350;-80
2022/12/06 00:31:01;;;;;;;;;46.00;39.00;;;;;5.27;100.00;101379.69;6255780;22;45378;-80
2022/12/06 00:33:30;;;;;;;;;48.67;41.33;;;;;5.27;100.00;101379.69;6256831;22;46703;-80
2022/12/06 00:35:58;;;;;;;;;57.00;46.67;;;;;5.32;100.00;101378.16;6258749;22;45324;-80
2022/12/06 00:38:24;;;;;;;;;52.00;41.75;;;;;5.25;100.00;101370.81;6268871;22;45374;-82
2022/12/06 00:41:02;;;;;;;;;55.00;43.00;;;;;5.27;100.00;101384.97;6262281;22;45318;-82
2022/12/06 00:43:29;;;;;;;;;56.75;44.25;;;;;5.29;100.00;101387.66;6288448;22;46724;-82
2022/12/06 00:45:55;;;;;;;;;49.25;42.00;;;;;5.28;100.00;101386.75;6262828;22;45792;-82
2022/12/06 00:48:22;;;;;;;;;54.67;43.67;;;;;5.22;100.00;101373.28;6262373;22;44789;-81
2022/12/06 00:50:54;;;;;;;;;48.33;41.00;;;;;5.20;100.00;101367.03;6264328;22;44747;-80
2022/12/06 00:53:20;;;;;;;;;38.67;36.33;;;;;5.23;100.00;101375.09;6264294;22;45439;-82
2022/12/06 00:55:46;;;;;;;;;45.33;41.00;;;;;5.27;100.00;101371.78;6263437;22;45147;-81
2022/12/06 00:58:12;;;;;;;;;45.67;41.00;;;;;5.30;100.00;101374.53;6291458;22;45930;-82
2022/12/06 01:00:38;;;;;;;;;45.00;40.33;;;;;5.30;100.00;101371.91;6264305;22;45189;-80
2022/12/06 01:03:04;;;;;;;;;36.33;29.00;;;;;5.29;100.00;101356.00;6292069;22;45335;-81
2022/12/06 01:05:30;;;;;;;;;44.33;36.67;;;;;5.33;100.00;101373.78;6292318;22;45343;-81
2022/12/06 01:07:56;;;;;;;;;36.33;36.33;;;;;5.30;100.00;101366.63;6291263;22;45222;-83
2022/12/06 01:10:22;;;;;;;;;50.33;41.33;;;;;5.35;100.00;101373.03;6264743;22;45291;-80
2022/12/06 01:12:48;;;;;;;;;46.67;41.33;;;;;5.35;100.00;101378.31;6292100;22;45210;-79
2022/12/06 01:15:14;;;;;;;;;51.67;40.67;;;;;5.36;100.00;101374.81;6293537;22;44723;-80
2022/12/06 01:17:39;;;;;;;;;44.00;41.67;;;;;5.37;100.00;101371.38;6292490;22;45707;-80
2022/12/06 01:20:06;;;;;;;;;50.00;39.33;;;;;5.33;100.00;101382.63;6292754;22;45397;-80
2022/12/06 01:22:31;;;;;;;;;49.67;38.33;;;;;5.31;100.00;101380.72;6264976;22;46672;-79
2022/12/06 01:24:57;;;;;;;;;43.67;38.67;;;;;5.30;100.00;101374.53;6291223;22;45349;-79
2022/12/06 01:27:23;;;;;;;;;34.00;32.00;;;;;5.30;100.00;101366.63;6263016;22;44734;-80
2022/12/06 01:29:48;;;;;;;;;46.67;41.33;;;;;5.31;100.00;101386.91;6263894;22;45592;-83
2022/12/06 01:32:14;;;;;;;;;45.33;40.00;;;;;5.38;100.00;101373.16;6292288;22;45271;-82
2022/12/06 01:34:40;;;;;;;;;43.67;39.33;;;;;5.34;100.00;101354.50;6293404;22;45360;-82
2022/12/06 01:37:05;;;;;;;;;45.67;38.33;;;;;5.40;100.00;101366.22;6266423;22;44758;-82
2022/12/06 01:39:33;;;;;;;;;46.33;40.00;;;;;5.48;100.00;101369.19;6293507;22;45520;-81
2022/12/06 01:41:58;;;;;;;;;41.00;36.67;;;;;5.51;100.00;101368.44;6265782;22;47508;-82
2022/12/06 01:44:38;;;;;;;;;39.67;34.67;;;;;5.53;100.00;101379.94;6291971;22;45442;-82
2022/12/06 01:47:04;;;;;;;;;38.50;35.00;;;;;5.46;100.00;101369.97;6290817;22;45678;-81
2022/12/06 01:49:34;;;;;;;;;41.00;36.33;;;;;5.46;100.00;101372.63;6293749;22;44712;-81
2022/12/06 01:52:08;;;;;;;;;39.33;36.00;;;;;5.41;100.00;101378.59;6292972;22;46191;-82
2022/12/06 01:54:34;;;;;;;;;45.67;40.67;;;;;5.37;100.00;101367.81;6295421;22;44861;-81
2022/12/06 01:57:05;;;;;;;;;44.00;39.00;;;;;5.35;100.00;101373.03;6292584;22;45298;-83
2022/12/06 01:59:30;;;;;;;;;37.67;31.67;;;;;5.34;100.00;101383.50;6293774;22;44711;-81
2022/12/06 02:01:56;;;;;;;;;41.33;36.33;;;;;5.34;100.00;101379.13;6265442;22;47103;-82
2022/12/06 02:04:23;;;;;;;;;25.00;24.33;;;;;5.32;100.00;101377.25;6265061;22;45686;-80
2022/12/06 02:06:53;;;;;;;;;38.33;32.33;;;;;5.24;100.00;101369.00;6292744;22;44702;-80
2022/12/06 02:09:19;;;;;;;;;42.33;37.67;;;;;5.27;100.00;101379.69;6293321;22;44756;-80
2022/12/06 02:11:46;;;;;;;;;39.67;35.33;;;;;5.28;100.00;101381.47;6265176;22;47364;-79
2022/12/06 02:14:19;;;;;;;;;37.33;31.67;;;;;5.24;100.00;101387.44;6264313;22;44676;-80
2022/12/06 02:17:12;;;;;;;;;41.00;35.33;;;;;5.24;100.00;101387.44;6293883;22;45403;-81
2022/12/06 02:19:59;;;;;;;;;43.67;34.67;;;;;5.25;100.00;101385.72;6289913;22;45275;-80
2022/12/06 02:22:25;;;;;;;;;34.33;30.00;;;;;5.28;100.00;101377.94;6264824;22;44943;-80
2022/12/06 02:25:09;;;;;;;;;47.33;41.00;;;;;5.33;100.00;101379.06;6292139;22;45346;-80
2022/12/06 02:27:53;;;;;;;;;40.33;32.67;;;;;5.33;100.00;101398.44;6292609;22;45318;-82
2022/12/06 02:30:57;;;;;;;;;39.67;37.67;;;;;5.26;100.00;101388.44;6266624;22;45512;-82
2022/12/06 02:33:27;;;;;;;;;44.33;35.00;;;;;5.18;100.00;101382.78;6138262;23;45314;-81
2022/12/06 02:36:07;;;;;;;;;41.00;36.33;;;;;5.16;100.00;101392.38;6138984;23;45258;-82
2022/12/06 02:38:48;;;;;;;;;41.67;37.67;;;;;5.19;100.00;101391.59;6112641;23;44710;-82
2022/12/06 02:41:22;;;;;;;;;44.00;38.00;;;;;5.18;100.00;101392.44;6138789;23;45421;-81
2022/12/06 02:43:58;;;;;;;;;38.00;37.00;;;;;5.10;100.00;101385.91;6113363;23;48135;-82
2022/12/06 02:46:28;;;;;;;;;40.00;32.33;;;;;5.03;100.00;101383.81;6138955;23;45419;-81
2022/12/06 02:48:57;;;;;;;;;34.67;34.33;;;;;5.01;100.00;101386.41;6138465;23;45532;-84
2022/12/06 02:51:25;;;;;;;;;45.67;36.33;;;;;5.01;100.00;101376.75;6139162;23;45385;-81
2022/12/06 02:53:57;;;;;;;;;39.33;33.33;;;;;5.10;100.00;101372.72;6137415;23;45323;-83
2022/12/06 02:56:23;;;;;;;;;40.00;35.00;;;;;5.08;100.00;101370.03;6113221;23;45409;-83
2022/12/06 02:58:49;;;;;;;;;44.67;39.00;;;;;5.14;100.00;101377.31;6138786;23;45392;-81
2022/12/06 03:01:23;;;;;;;;;42.00;39.00;;;;;5.15;100.00;101384.38;6138400;23;45370;-80
2022/12/06 03:04:12;;;;;;;;;44.00;38.33;;;;;5.17;100.00;101374.81;6140581;23;45987;-80
2022/12/06 03:07:03;;;;;;;;;38.33;34.67;;;;;5.22;100.00;101386.47;6169473;22;45433;-84
2022/12/06 03:09:34;;;;;;;;;36.00;31.33;;;;;5.22;100.00;101386.47;6262122;22;45312;-82
2022/12/06 03:12:28;;;;;;;;;43.33;37.00;;;;;5.16;100.00;101380.94;6262136;22;45359;-83
2022/12/06 03:15:07;;;;;;;;;43.00;38.67;;;;;5.22;100.00;101390.00;6240537;22;45442;-81
2022/12/06 03:17:46;;;;;;;;;32.67;30.00;;;;;5.26;100.00;101387.53;6264378;22;45443;-81
2022/12/06 03:20:24;;;;;;;;;37.67;34.33;;;;;5.33;100.00;101384.31;6262780;22;44736;-81
2022/12/06 03:23:01;;;;;;;;;51.67;34.33;;;;;5.36;100.00;101387.13;6261846;22;45023;-82
2022/12/06 03:25:28;;;;;;;;;43.67;38.33;;;;;5.40;100.00;101392.59;6261026;22;47045;-83
2022/12/06 03:27:58;;;;;;;;;43.33;35.33;;;;;5.39;100.00;101374.06;6262923;22;45233;-82
2022/12/06 03:30:24;;;;;;;;;41.00;37.67;;;;;5.40;100.00;101375.88;6260553;22;45375;-81
2022/12/06 03:32:50;;;;;;;;;38.67;36.00;;;;;5.44;100.00;101371.66;6258420;22;44824;-82
2022/12/06 03:35:22;;;;;;;;;51.67;32.67;;;;;5.49;100.00;101373.63;6257688;22;47850;-84
2022/12/06 03:37:53;;;;;;;;;42.67;38.00;;;;;5.51;100.00;101379.88;6258861;22;44797;-82
2022/12/06 03:40:25;;;;;;;;;46.67;36.00;;;;;5.49;100.00;101365.72;6290431;22;45519;-83
2022/12/06 03:42:51;;;;;;;;;44.33;38.33;;;;;5.58;100.00;101376.69;6260564;22;44705;-82
2022/12/06 03:45:20;;;;;;;;;45.00;37.33;;;;;5.57;100.00;101376.63;6262046;22;47933;-81
2022/12/06 03:48:02;;;;;;;;;48.33;42.00;;;;;5.52;100.00;101371.16;6262456;22;45586;-82
2022/12/06 03:50:37;;;;;;;;;43.33;37.67;;;;;5.52;100.00;101370.25;6263311;22;45429;-81
2022/12/06 03:53:03;;;;;;;;;39.67;36.67;;;;;5.50;100.00;101375.44;6264686;22;45283;-82
2022/12/06 03:55:29;;;;;;;;;48.33;38.67;;;;;5.52;100.00;101375.53;6293233;22;46960;-81
2022/12/06 03:57:55;;;;;;;;;41.00;34.33;;;;;5.53;100.00;101372.94;6294269;22;44717;-81
2022/12/06 04:00:20;;;;;;;;;39.33;32.67;;;;;5.51;100.00;101378.97;6294435;22;45650;-82
2022/12/06 04:02:46;;;;;;;;;43.00;37.67;;;;;5.46;100.00;101368.22;6293511;22;45571;-82
2022/12/06 04:05:12;;;;;;;;;43.67;37.33;;;;;5.48;100.00;101379.75;6264192;22;46774;-80
2022/12/06 04:07:37;;;;;;;;;40.67;36.67;;;;;5.51;100.00;101378.97;6237989;22;45995;-81
2022/12/06 04:10:04;;;;;;;;;42.33;36.33;;;;;5.50;100.00;101383.38;6292654;22;45280;-81
2022/12/06 04:15:17;;;;;;;;;45.33;40.00;;;;;5.54;100.00;101371.22;6291305;22;45404;-81
2022/12/06 04:23:02;;;;;;;;;32.00;31.00;;;;;5.58;100.00;101381.06;6290627;22;45222;-81
2022/12/06 04:23:18;;;;;;;;;44.00;37.00;;;;;5.59;100.00;101377.59;6268068;22;45290;-80
2022/12/06 04:25:44;;;;;;;;;52.67;41.33;;;;;5.63;100.00;101373.34;6263388;22;46240;-80
2022/12/06 04:39:07;;;;;;;;;43.67;37.33;;;;;5.65;100.00;101366.41;6260298;22;44913;-82
2022/12/06 04:44:17;;;;;;;;;44.67;38.67;;;;;5.66;100.00;101368.22;6259756;22;45417;-82
2022/12/06 04:46:44;;;;;;;;;43.00;36.33;;;;;5.70;100.00;101371.06;6259955;22;45004;-81
2022/12/06 04:49:18;;;;;;;;;36.33;35.00;;;;;5.74;100.00;101365.06;6281997;22;45279;-80
2022/12/06 04:51:43;;;;;;;;;47.67;33.33;;;;;5.72;100.00;101357.94;6258223;22;45333;-80
2022/12/06 04:54:09;;;;;;;;;42.33;37.33;;;;;5.77;100.00;101356.38;6259575;22;45262;-81
2022/12/06 04:56:35;;;;;;;;;40.33;36.67;;;;;5.77;100.00;101357.28;6259815;22;44871;-79
2022/12/06 04:59:01;;;;;;;;;36.33;32.00;;;;;5.78;100.00;101359.09;6257994;22;45407;-80
2022/12/06 05:01:27;;;;;;;;;40.67;37.33;;;;;5.80;100.00;101362.69;6257948;22;44694;-81
2022/12/06 05:03:53;;;;;;;;;39.67;37.33;;;;;5.82;100.00;101355.75;6285654;22;45065;-81
2022/12/06 05:06:22;;;;;;;;;49.33;41.33;;;;;5.79;100.00;101352.97;6259431;22;46669;-81
2022/12/06 05:08:50;;;;;;;;;53.67;39.33;;;;;5.82;100.00;101354.84;6262007;22;45297;-81
2022/12/06 05:11:16;;;;;;;;;41.33;38.00;;;;;5.81;100.00;101353.94;6257584;22;45247;-83
2022/12/06 05:13:44;;;;;;;;;44.33;40.67;;;;;5.79;100.00;101354.72;6261524;22;45298;-83
2022/12/06 05:16:12;;;;;;;;;53.33;38.00;;;;;5.77;100.00;101352.00;6258632;22;46546;-82
2022/12/06 05:18:37;;;;;;;;;46.00;38.33;;;;;5.81;100.00;101366.22;6258403;22;45362;-82
2022/12/06 05:25:15;;;;;;;;;44.00;36.33;;;;;5.81;100.00;101350.41;6259755;22;45123;-80
2022/12/06 05:27:41;;;;;;;;;53.67;41.00;;;;;5.85;100.00;101359.34;6258088;22;47313;-81
2022/12/06 05:30:10;;;;;;;;;35.33;32.33;;;;;5.87;100.00;101355.03;6257603;22;45422;-80
2022/12/06 05:32:39;;;;;;;;;46.67;40.67;;;;;5.89;100.00;101361.28;6257613;22;45279;-81
2022/12/06 05:35:06;;;;;;;;;45.00;39.33;;;;;5.88;100.00;101357.75;6257006;22;45328;-81
2022/12/06 05:37:31;;;;;;;;;50.33;42.00;;;;;5.80;100.00;101341.59;6255812;22;45346;-80
2022/12/06 05:39:57;;;;;;;;;53.33;41.67;;;;;5.87;100.00;101348.03;6278962;22;45321;-80
2022/12/06 05:42:22;;;;;;;;;46.33;38.33;;;;;5.84;100.00;101346.97;6287760;22;45650;-81
2022/12/06 05:44:48;;;;;;;;;46.33;40.67;;;;;5.84;100.00;101339.06;6261312;22;45342;-82
2022/12/06 05:47:17;;;;;;;;;45.33;40.33;;;;;5.88;100.00;101343.63;6261110;22;46755;-82
2022/12/06 05:49:43;;;;;;;;;46.33;39.67;;;;;5.89;100.00;101341.06;6261633;22;45248;-82
2022/12/06 05:52:09;;;;;;;;;29.33;27.33;;;;;5.89;100.00;101340.16;6261320;22;44807;-80
2022/12/06 05:54:34;;;;;;;;;43.33;38.33;;;;;5.92;100.00;101337.69;6262011;22;45449;-82
2022/12/06 05:57:04;;;;;;;;;56.33;41.00;;;;;5.95;100.00;101338.72;6238027;22;47200;-80
2022/12/06 05:59:30;;;;;;;;;44.33;36.33;;;;;5.90;100.00;101331.41;6265249;22;44725;-80
2022/12/06 06:01:56;;;;;;;;;43.33;38.67;;;;;5.93;100.00;101342.09;6260275;22;45319;-81
2022/12/06 06:04:21;;;;;;;;;49.33;40.67;;;;;5.88;100.00;101341.00;6260002;22;45271;-81
2022/12/06 06:06:47;;;;;;;;;38.33;30.67;;;;;5.92;100.00;101341.22;6259876;22;46440;-81
2022/12/06 06:09:12;;;;;;;;;63.50;52.00;;;;;5.96;100.00;101337.00;6261071;22;44703;-81
2022/12/06 06:11:38;;;;;;;;;51.33;42.00;;;;;6.00;100.00;101345.13;6287695;22;45448;-81
2022/12/06 06:14:05;;;;;;;;;45.67;38.00;;;;;5.95;100.00;101335.19;6259630;22;45268;-81
2022/12/06 06:16:33;;;;;;;;;56.33;42.00;;;;;5.98;100.00;101353.81;6259976;22;45413;-81
2022/12/06 06:19:00;;;;;;;;;54.67;43.00;;;;;5.99;100.00;101355.59;6259870;22;45650;-81
2022/12/06 06:21:26;;;;;;;;;42.67;39.33;;;;;6.01;100.00;101351.28;6258160;22;45246;-80
2022/12/06 06:23:55;;;;;;;;;51.00;39.33;;;;;5.99;100.00;101352.97;6288907;22;45359;-81
2022/12/06 06:29:42;;;;;;;;;45.33;41.67;;;;;5.93;100.00;101331.53;6295809;22;45331;-83
2022/12/06 06:32:08;;;;;;;;;46.33;40.67;;;;;6.02;100.00;101353.09;6293107;22;45416;-80
2022/12/06 06:34:34;;;;;;;;;51.67;40.67;;;;;5.81;100.00;101324.91;6290535;22;45349;-82
2022/12/06 06:37:00;;;;;;;;;46.00;38.00;;;;;6.01;100.00;101352.19;6262936;22;46339;-81
2022/12/06 06:39:26;;;;;;;;;48.00;40.33;;;;;6.03;100.00;101356.63;6288406;22;45720;-79
2022/12/06 06:41:51;;;;;;;;;35.00;34.33;;;;;6.05;100.00;101358.50;6286340;22;45443;-81
2022/12/06 06:44:19;;;;;;;;;47.33;41.00;;;;;6.03;100.00;101349.59;6288381;22;45336;-81
2022/12/06 06:46:45;;;;;;;;;46.33;39.67;;;;;6.09;100.00;101355.16;6261252;22;45315;-82
2022/12/06 06:49:11;;;;;;;;;49.00;40.00;;;;;6.10;100.00;101366.59;6290360;22;45273;-82
2022/12/06 06:51:36;;;;;;;;;51.00;40.33;;;;;6.09;100.00;101364.81;6261566;22;45314;-81
2022/12/06 06:54:03;;;;;;;;;48.33;42.00;;;;;6.12;100.00;101367.56;6290863;22;45130;-82
2022/12/06 06:56:28;;;;;;;;;43.33;36.33;;;;;6.08;100.00;101363.94;6237577;22;46848;-81
2022/12/06 06:58:54;;;;;;;;;47.67;40.33;;;;;6.13;100.00;101374.69;6289304;22;44731;-81
2022/12/06 07:01:22;;;;;;;;;45.33;38.00;;;;;6.14;100.00;101379.09;6289375;22;45321;-82
2022/12/06 07:03:51;;;;;;;;;44.33;41.67;;;;;6.11;100.00;101374.59;6262026;22;45541;-82
2022/12/06 07:06:16;;;;;;;;;53.33;42.33;;;;;6.12;100.00;101371.13;6261308;22;46885;-82
2022/12/06 07:08:45;;;;;;;;;44.00;37.67;;;;;6.13;100.00;101367.66;6260334;22;45266;-83
2022/12/06 07:11:12;;;;;;;;;46.67;34.33;;;;;6.11;100.00;101364.03;6291898;22;45335;-82
2022/12/06 07:13:39;;;;;;;;;39.33;33.00;;;;;6.18;100.00;101365.19;6292465;22;45400;-82
2022/12/06 07:16:07;;;;;;;;;47.67;40.67;;;;;6.19;100.00;101359.09;6262280;22;47285;-81
2022/12/06 07:18:34;;;;;;;;;50.33;42.00;;;;;6.17;100.00;101358.13;6291277;22;45538;-82
2022/12/06 07:21:03;;;;;;;;;46.33;39.67;;;;;6.22;100.00;101369.75;6262553;22;45376;-82
2022/12/06 07:23:30;;;;;;;;;48.33;41.33;;;;;6.14;100.00;101358.91;6237981;22;45402;-81
2022/12/06 07:26:02;;;;;;;;;45.33;38.00;;;;;6.11;100.00;101360.50;6291226;22;45266;-80
2022/12/06 07:28:27;;;;;;;;;55.33;42.00;;;;;6.06;100.00;101362.97;6292713;22;44753;-80
2022/12/06 07:30:53;;;;;;;;;48.67;40.00;;;;;5.91;100.00;101349.06;6291735;22;45425;-80
2022/12/06 07:33:18;;;;;;;;;46.00;38.67;;;;;5.96;100.00;101368.69;6294495;22;45590;-81
2022/12/06 07:35:44;;;;;;;;;52.33;42.33;;;;;5.89;100.00;101367.47;6291952;22;45139;-82
2022/12/06 07:38:09;;;;;;;;;51.67;40.00;;;;;5.77;100.00;101367.84;6291684;22;45559;-81
2022/12/06 07:40:35;;;;;;;;;43.67;39.33;;;;;5.76;100.00;101359.88;6259012;22;44725;-81
2022/12/06 07:45:53;;;;;;;;;55.00;42.67;;;;;5.82;100.00;101370.69;6260830;22;45340;-81
2022/12/06 07:48:19;;;;;;;;;52.33;41.67;;;;;5.82;100.00;101360.13;6259119;22;44723;-82
2022/12/06 07:50:46;;;;;;;;;49.67;40.33;;;;;5.64;100.00;101335.59;6259602;22;45347;-82
2022/12/06 07:53:13;;;;;;;;;56.00;44.67;;;;;5.75;100.00;101364.22;6260585;22;44763;-81
2022/12/06 07:55:39;;;;;;;;;47.33;40.67;;;;;5.80;100.00;101361.81;6258652;22;48144;-80
2022/12/06 07:58:11;;;;;;;;;49.00;42.00;;;;;5.84;100.00;101363.75;6259651;22;45692;-80
2022/12/06 08:00:39;;;;;;;;;47.33;42.00;;;;;5.84;100.00;101352.25;6286458;22;45367;-82
2022/12/06 08:03:07;;;;;;;;;53.00;39.33;;;;;5.84;100.00;101358.47;6260160;22;45245;-80
2022/12/06 08:08:57;;;;;;;;;54.33;42.00;;;;;5.90;100.00;101371.94;6265324;22;45420;-81
2022/12/06 08:11:23;;;;;;;;;58.00;46.33;;;;;5.89;100.00;101374.50;6265208;22;44768;-82
2022/12/06 08:13:49;;;;;;;;;50.67;40.33;;;;;5.82;100.00;101371.59;6262774;22;45706;-81
2022/12/06 08:16:17;;;;;;;;;83.00;63.25;;;;;5.85;100.00;101386.66;6259704;22;47845;-80
2022/12/06 08:18:46;;;;;;;;;55.50;43.50;;;;;5.92;100.00;101390.47;6259855;22;45385;-80
2022/12/06 08:21:13;;;;;;;;;57.33;43.33;;;;;5.95;100.00;101391.53;6261201;22;44875;-80
2022/12/06 08:23:43;;;;;;;;;62.33;44.67;;;;;5.96;100.00;101395.97;6258551;22;44801;-81
2022/12/06 08:26:12;;;;;;;;;47.67;38.67;;;;;5.96;100.00;101392.44;6258040;22;47152;-82
2022/12/06 08:28:46;;;;;;;;;45.67;40.33;;;;;5.98;100.00;101398.69;6260029;22;45336;-83
2022/12/06 08:31:16;;;;;;;;;54.50;44.00;;;;;6.01;100.00;101406.72;6260918;22;45303;-83
2022/12/06 08:33:43;;;;;;;;;49.67;42.67;;;;;6.02;100.00;101413.84;6260206;22;45305;-83
2022/12/06 08:36:19;;;;;;;;;47.67;38.67;;;;;5.90;100.00;101410.59;6264752;22;45574;-84
2022/12/06 08:38:49;;;;;;;;;47.67;41.67;;;;;5.79;100.00;101404.84;6265499;22;45533;-82
2022/12/06 08:44:13;;;;;;;;;50.67;40.00;;;;;5.78;100.00;101427.72;6272889;22;44772;-84
2022/12/06 08:46:59;;;;;;;;;54.00;39.00;;;;;5.55;100.00;101407.31;6283702;22;45354;-84
2022/12/06 08:49:28;;;;;;;;;51.33;38.00;;;;;5.57;100.00;101410.91;6266899;22;45461;-82
2022/12/06 08:52:06;;;;;;;;;47.33;42.00;;;;;5.40;100.00;101397.88;6267493;22;45255;-84
2022/12/06 08:54:34;;;;;;;;;45.33;40.67;;;;;5.39;100.00;101390.81;6295178;22;45285;-84
2022/12/06 08:57:02;;;;;;;;;57.33;43.00;;;;;5.56;100.00;101406.50;6267180;22;47825;-82
2022/12/06 08:59:34;;;;;;;;;52.67;43.33;;;;;5.60;100.00;101395.22;6295285;22;44786;-82
2022/12/06 09:02:05;;;;;;;;;48.00;39.33;;;;;5.63;100.00;101389.19;6266729;22;45272;-82
2022/12/06 09:04:30;;;;;;;;;46.67;41.33;;;;;5.51;100.00;101376.34;6267087;22;45433;-83
2022/12/06 09:07:25;;;;;;;;;;;;;;;;;;;;;
2022/12/06 09:10:33;;;;;;;;;55.33;44.33;;;;;5.90;100.00;101434.34;6294044;22;72402;-83
2022/12/06 09:13:08;;;;;;;;;55.33;42.00;;;;;5.67;100.00;101384.09;6265370;22;44748;-84
2022/12/06 09:16:23;;;;;;;;;56.67;42.00;;;;;5.97;100.00;101439.13;6264519;22;45472;-83
2022/12/06 09:18:52;;;;;;;;;56.33;43.67;;;;;5.75;100.00;101410.84;6265639;22;45329;-83
2022/12/06 09:21:38;;;;;;;;;51.67;44.67;;;;;5.86;100.00;101440.34;6294571;22;44863;-84
2022/12/06 09:24:04;;;;;;;;;59.00;47.00;;;;;5.71;100.00;101422.97;6267656;22;44788;-83
2022/12/06 09:27:06;;;;;;;;;56.00;44.67;;;;;5.64;100.00;101410.38;6293787;22;44799;-82
2022/12/06 09:29:33;;;;;;;;;41.00;32.67;;;;;5.82;100.00;101434.94;6268623;22;45395;-84
2022/12/06 09:32:12;;;;;;;;;59.25;49.25;;;;;5.68;100.00;101400.88;6294730;22;45322;-83
2022/12/06 09:34:41;;;;;;;;;53.00;45.00;;;;;5.70;100.00;101404.47;6271234;22;44693;-83
2022/12/06 09:37:17;;;;;;;;;53.67;43.33;;;;;5.67;100.00;101399.94;6243354;22;44798;-85
2022/12/06 09:43:45;;;;;;;;;41.33;38.00;;;;;5.81;100.00;101442.78;6131320;23;45463;-84
2022/12/06 09:46:33;;;;;;;;;52.67;41.67;;;;;5.71;100.00;101430.91;6118062;23;44719;-84
2022/12/06 09:49:57;;;;;;;;;51.33;41.67;;;;;5.82;100.00;101448.13;6108196;23;45297;-84
2022/12/06 09:53:01;;;;;;;;;51.33;41.67;;;;;5.88;100.00;101446.59;6116695;23;45568;-83
2022/12/06 09:56:03;;;;;;;;;60.33;48.00;;;;;5.96;100.00;101451.44;6116425;23;45452;-84
2022/12/06 09:58:58;;;;;;;;;57.25;45.75;;;;;5.93;100.00;101431.88;6115297;23;45369;-82
2022/12/06 10:12:00;;;;;;;;;58.00;44.00;;;;;5.98;100.00;101447.13;6143159;23;45367;-84
2022/12/06 10:14:42;;;;;;;;;52.67;40.33;;;;;5.93;100.00;101447.72;6144696;23;45522;-84
2022/12/06 10:17:58;;;;;;;;;52.67;43.00;;;;;5.95;100.00;101451.34;6144117;23;45706;-83
2022/12/06 10:21:07;;;;;;;;;;;;;;;;;;;;;
2022/12/06 10:24:10;;;;;;;;;79.25;58.75;;;;;5.97;100.00;101445.28;6268476;22;68117;-83
2022/12/06 10:27:08;;;;;;;;;233.00;205.00;;;;;5.98;100.00;101427.75;6265523;22;45417;-83
2022/12/06 10:33:18;;;;;;;;;;;;;;;;;;;;;
2022/12/06 10:36:04;;;;;;;;;82.25;61.50;;;;;6.06;100.00;101447.47;6193789;22;45386;-83
2022/12/06 10:39:02;;;;;;;;;85.25;65.50;;;;;5.86;100.00;101403.38;6229917;22;45320;-83
2022/12/06 10:41:35;;;;;;;;;60.50;50.75;;;;;6.07;100.00;101441.31;6183522;22;45437;-82
2022/12/06 10:44:21;;;;;;;;;65.25;52.50;;;;;6.11;100.00;101442.38;6233996;22;44658;-84
2022/12/06 10:47:03;;;;;;;;;75.00;58.50;;;;;6.18;100.00;101450.63;6205995;22;44717;-84
2022/12/06 10:49:49;;;;;;;;;68.50;54.00;;;;;6.20;100.00;101459.53;6231734;22;45232;-83
2022/12/06 10:52:45;;;;;;;;;63.75;48.50;;;;;6.11;100.00;101448.53;6233427;22;45708;-81
2022/12/06 10:55:34;;;;;;;;;53.25;41.75;;;;;6.02;100.00;101448.16;6231756;22;44758;-84
2022/12/06 10:58:34;;;;;;;;;52.33;42.67;;;;;5.95;100.00;101451.34;6232885;22;45364;-83
2022/12/06 11:01:27;;;;;;;;;60.00;45.00;;;;;5.77;100.00;101436.44;6233617;22;44770;-83
2022/12/06 11:04:54;;;;;;;;;52.00;44.33;;;;;5.90;100.00;101447.56;6210357;22;46816;-85
2022/12/06 11:08:20;;;;;;;;;52.25;41.00;;;;;5.91;100.00;101454.66;6209937;22;44679;-83
2022/12/06 11:10:49;;;;;;;;;56.67;45.67;;;;;5.90;100.00;101444.91;6089882;23;44809;-82
2022/12/06 11:13:53;;;;;;;;;57.33;46.67;;;;;5.96;100.00;101440.88;6112619;23;44850;-82
2022/12/06 11:16:33;;;;;;;;;64.00;46.00;;;;;6.00;100.00;101432.25;6089393;23;46348;-84
2022/12/06 11:19:58;;;;;;;;;61.67;48.00;;;;;6.10;100.00;101433.56;6113949;23;45350;-84
2022/12/06 11:23:04;;;;;;;;;47.00;39.33;;;;;6.09;100.00;101434.38;6083331;23;45333;-83
2022/12/06 11:26:31;;;;;;;;;57.00;45.33;;;;;6.00;100.00;101431.34;5969871;23;45408;-84
2022/12/06 11:29:11;;;;;;;;;54.00;43.67;;;;;6.02;100.00;101432.31;5969685;23;47761;-83
2022/12/06 11:32:13;;;;;;;;;58.67;44.00;;;;;6.04;100.00;101430.66;5948978;23;45491;-84
2022/12/06 11:38:18;;;;;;;;;;;;;;;;;;;;;
2022/12/06 11:41:03;;;;;;;;;61.33;47.67;;;;;5.83;100.00;101372.47;6272214;22;74353;-84
2022/12/06 11:44:17;;;;;;;;;61.00;50.00;;;;;6.13;100.00;101412.53;6268315;22;45127;-84
2022/12/06 11:46:56;;;;;;;;;46.33;38.00;;;;;5.99;100.00;101389.94;6268858;22;45345;-82
2022/12/06 11:49:48;;;;;;;;;57.33;46.33;;;;;6.04;100.00;101403.31;6268488;22;45253;-83
2022/12/06 11:53:24;;;;;;;;;56.33;43.00;;;;;5.96;100.00;101401.25;6267871;22;45156;-83
2022/12/06 11:55:57;;;;;;;;;48.33;40.33;;;;;5.93;100.00;101402.81;6199087;22;44828;-85
2022/12/06 11:58:50;;;;;;;;;44.67;36.33;;;;;6.08;100.00;101395.63;6178297;22;44754;-85
2022/12/06 12:01:42;;;;;;;;;60.75;45.50;;;;;6.19;100.00;101393.41;6151935;23;45458;-85
2022/12/06 12:04:48;;;;;;;;;;;;;;;;;;;;;
2022/12/06 12:07:33;;;;;;;;;;;;;;;;;;;;;
2022/12/06 12:17:57;;;;;;;;;61.00;46.00;;;;;6.57;100.00;101365.03;6280180;22;45750;-83
2022/12/06 12:20:30;;;;;;;;;61.00;46.75;;;;;6.57;100.00;101352.72;6300060;22;44736;-85
2022/12/06 12:23:03;;;;;;;;;59.75;47.25;;;;;6.68;100.00;101350.50;6296896;22;45549;-86
2022/12/06 12:25:35;;;;;;;;;63.75;49.75;;;;;6.74;100.00;101360.41;6296684;22;46732;-84
2022/12/06 12:31:26;;;;;;;;;65.50;50.00;;;;;6.83;100.00;101360.78;6267602;22;45183;-85
2022/12/06 12:34:28;;;;;;;;;61.25;48.75;;;;;6.88;100.00;101359.22;6264430;22;45457;-83
2022/12/06 12:37:19;;;;;;;;;65.25;47.25;;;;;6.88;100.00;101348.63;6263160;22;46944;-83
2022/12/06 12:40:02;;;;;;;;;67.75;51.75;;;;;6.84;100.00;101341.44;6262544;22;45133;-84
2022/12/06 12:42:33;;;;;;;;;60.25;47.25;;;;;6.88;100.00;101332.78;6262662;22;45264;-85
2022/12/06 12:45:04;;;;;;;;;65.00;49.50;;;;;7.03;100.00;101344.78;6263309;22;45365;-85
2022/12/06 12:47:32;;;;;;;;;75.25;52.50;;;;;6.93;100.00;101333.88;6264139;22;45394;-87
2022/12/06 12:50:19;;;;;;;;;67.00;48.75;;;;;7.02;100.00;101343.88;6263851;22;44757;-83
2022/12/06 12:52:55;;;;;;;;;65.50;52.00;;;;;6.96;100.00;101328.69;6262395;22;44788;-85
2022/12/06 12:55:36;;;;;;;;;64.50;51.50;;;;;7.11;100.00;101348.59;6258556;22;45290;-84
2022/12/06 12:58:11;;;;;;;;;58.50;47.25;;;;;7.14;100.00;101339.06;6262872;22;45295;-85